Time,TemperatureF,DewpointF,PressureIn,WindDirection,WindDirectionDegrees,WindSpeedMPH,WindSpeedGustMPH,Humidity,HourlyPrecipIn,Conditions,Clouds,dailyrainin,SoftwareType,DateUTC
2013-07-29 00:02:00,65.0,36.0,-100.00,WNW,290,8.0,11.0,34,-99.99,,,-99.99,,2013-07-29 07:02:00,
2013-07-29 00:12:00,65.0,36.0,-100.00,WNW,290,8.0,11.0,34,-99.99,,,-99.99,,2013-07-29 07:12:00,
2013-07-29 00:22:00,64.0,36.0,-100.00,NW,307,8.0,10.0,35,-99.99,,,-99.99,,2013-07-29 07:22:00,
2013-07-29 00:33:00,64.0,36.0,-100.00,NW,307,8.0,10.0,35,-99.99,,,-99.99,,2013-07-29 07:33:00,
2013-07-29 00:43:00,64.0,36.0,-100.00,NW,319,7.0,8.0,35,-99.99,,,-99.99,,2013-07-29 07:43:00,
2013-07-29 00:53:00,64.0,36.0,-100.00,NW,319,7.0,8.0,35,-99.99,,,-99.99,,2013-07-29 07:53:00,
2013-07-29 01:02:00,64.0,36.0,-100.00,NW,314,6.0,8.0,35,-99.99,,,-99.99,,2013-07-29 08:02:00,
2013-07-29 01:12:00,65.0,37.0,-100.00,WNW,295,7.0,9.0,35,-99.99,,,-99.99,,2013-07-29 08:12:00,
2013-07-29 01:22:00,64.0,36.0,-100.00,WNW,289,7.0,10.0,35,-99.99,,,-99.99,,2013-07-29 08:22:00,
2013-07-29 01:33:00,64.0,36.0,-100.00,WNW,303,6.0,10.0,35,-99.99,,,-99.99,,2013-07-29 08:33:00,
2013-07-29 01:52:00,65.0,36.0,-100.00,WNW,297,6.0,11.0,34,-99.99,,,-99.99,,2013-07-29 08:52:00,
2013-07-29 02:12:00,65.0,34.0,-100.00,NW,307,7.0,9.0,32,-99.99,,,-99.99,,2013-07-29 09:12:00,
2013-07-29 02:22:00,65.0,34.0,-100.00,NW,307,7.0,9.0,32,-99.99,,,-99.99,,2013-07-29 09:22:00,
2013-07-29 02:30:00,66.0,35.0,-100.00,NW,306,5.0,7.0,32,-99.99,,,-99.99,,2013-07-29 09:30:00,
2013-07-29 02:33:00,65.0,34.0,-100.00,NW,310,6.0,8.0,32,-99.99,,,-99.99,,2013-07-29 09:33:00,
2013-07-29 02:43:00,66.0,35.0,-100.00,NW,306,5.0,7.0,32,-99.99,,,-99.99,,2013-07-29 09:43:00,
2013-07-29 03:02:00,66.0,35.0,-100.00,NW,306,5.0,7.0,32,-99.99,,,-99.99,,2013-07-29 10:02:00,
2013-07-29 03:13:00,66.0,35.0,-100.00,NW,306,5.0,7.0,32,-99.99,,,-99.99,,2013-07-29 10:13:00,
2013-07-29 03:22:00,66.0,35.0,-100.00,NW,306,5.0,7.0,32,-99.99,,,-99.99,,2013-07-29 10:22:00,
2013-07-29 03:46:00,67.0,33.0,-100.00,NW,317,7.0,10.0,28,-99.99,,,-99.99,,2013-07-29 10:46:00,
2013-07-29 03:53:00,67.0,32.0,-100.00,NW,308,7.0,10.0,27,-99.99,,,-99.99,,2013-07-29 10:53:00,
2013-07-29 04:13:00,67.0,31.0,-100.00,NW,308,6.0,10.0,26,-99.99,,,-99.99,,2013-07-29 11:13:00,
2013-07-29 04:22:00,67.0,32.0,-100.00,NW,308,6.0,10.0,27,-99.99,,,-99.99,,2013-07-29 11:22:00,
2013-07-29 04:44:00,66.0,34.0,-100.00,WNW,299,6.0,8.0,30,-99.99,,,-99.99,,2013-07-29 11:44:00,
2013-07-29 05:13:00,66.0,35.0,-100.00,NW,306,5.0,7.0,32,-99.99,,,-99.99,,2013-07-29 12:13:00,
2013-07-29 05:44:00,66.0,35.0,-100.00,NW,311,5.0,7.0,32,-99.99,,,-99.99,,2013-07-29 12:44:00,
2013-07-29 06:10:00,66.0,35.0,-100.00,NW,324,7.0,9.0,32,-99.99,,,-99.99,,2013-07-29 13:10:00,
2013-07-29 06:12:00,66.0,35.0,-100.00,NNW,327,6.0,8.0,32,-99.99,,,-99.99,,2013-07-29 13:12:00,
2013-07-29 06:33:00,66.0,35.0,-100.00,NW,316,7.0,10.0,32,-99.99,,,-99.99,,2013-07-29 13:33:00,
2013-07-29 06:43:00,66.0,35.0,-100.00,NW,324,7.0,9.0,32,-99.99,,,-99.99,,2013-07-29 13:43:00,
2013-07-29 06:54:00,66.0,35.0,-100.00,NW,324,7.0,9.0,32,-99.99,,,-99.99,,2013-07-29 13:54:00,
2013-07-29 07:03:00,66.0,35.0,-100.00,NW,324,7.0,9.0,32,-99.99,,,-99.99,,2013-07-29 14:03:00,
2013-07-29 07:54:00,69.0,29.0,-100.00,NW,321,5.0,8.0,22,-99.99,,,-99.99,,2013-07-29 14:54:00,
2013-07-29 08:23:00,69.0,32.0,-100.00,NW,322,5.0,8.0,25,-99.99,,,-99.99,,2013-07-29 15:23:00,
2013-07-29 08:53:00,68.0,36.0,-100.00,NNW,328,6.0,9.0,31,-99.99,,,-99.99,,2013-07-29 15:53:00,
2013-07-29 09:03:00,69.0,35.0,-100.00,NNW,339,6.0,9.0,28,-99.99,,,-99.99,,2013-07-29 16:03:00,
2013-07-29 09:34:00,70.0,37.0,-100.00,NW,313,9.0,11.0,30,-99.99,,,-99.99,,2013-07-29 16:34:00,
2013-07-29 09:54:00,70.0,37.0,-100.00,WNW,298,7.0,11.0,30,-99.99,,,-99.99,,2013-07-29 16:54:00,
2013-07-29 10:03:00,71.0,37.0,-100.00,WNW,300,7.0,11.0,29,-99.99,,,-99.99,,2013-07-29 17:03:00,
2013-07-29 10:12:00,71.0,37.0,-100.00,WNW,300,7.0,11.0,29,-99.99,,,-99.99,,2013-07-29 17:12:00,
2013-07-29 10:35:00,72.0,37.0,-100.00,West,277,6.0,10.0,28,-99.99,,,-99.99,,2013-07-29 17:35:00,
2013-07-29 10:43:00,72.0,37.0,-100.00,West,278,6.0,10.0,28,-99.99,,,-99.99,,2013-07-29 17:43:00,
2013-07-29 10:54:00,72.0,38.0,-100.00,WNW,293,6.0,9.0,29,-99.99,,,-99.99,,2013-07-29 17:54:00,
2013-07-29 11:02:00,72.0,38.0,-100.00,WNW,293,6.0,9.0,29,-99.99,,,-99.99,,2013-07-29 18:02:00,
2013-07-29 11:12:00,72.0,38.0,-100.00,West,276,7.0,12.0,29,-99.99,,,-99.99,,2013-07-29 18:12:00,
2013-07-29 11:22:00,73.0,39.0,-100.00,West,267,7.0,11.0,29,-99.99,,,-99.99,,2013-07-29 18:22:00,
2013-07-29 12:02:00,74.0,41.0,-100.00,West,270,7.0,15.0,30,-99.99,,,-99.99,,2013-07-29 19:02:00,
2013-07-29 12:13:00,74.0,41.0,-100.00,West,270,7.0,15.0,30,-99.99,,,-99.99,,2013-07-29 19:13:00,
2013-07-29 12:35:00,74.0,41.0,-100.00,West,273,7.0,12.0,31,-99.99,,,-99.99,,2013-07-29 19:35:00,
2013-07-29 12:44:00,74.0,42.0,-100.00,West,264,8.0,13.0,32,-99.99,,,-99.99,,2013-07-29 19:44:00,
2013-07-29 12:53:00,74.0,42.0,-100.00,West,264,8.0,13.0,32,-99.99,,,-99.99,,2013-07-29 19:53:00,
2013-07-29 13:03:00,74.0,42.0,-100.00,West,263,9.0,14.0,32,-99.99,,,-99.99,,2013-07-29 20:03:00,
2013-07-29 13:33:00,75.0,44.0,-100.00,West,267,8.0,15.0,33,-99.99,,,-99.99,,2013-07-29 20:33:00,
2013-07-29 13:44:00,75.0,45.0,-100.00,WSW,244,9.0,15.0,34,-99.99,,,-99.99,,2013-07-29 20:44:00,
2013-07-29 13:55:00,75.0,45.0,-100.00,WSW,244,9.0,15.0,34,-99.99,,,-99.99,,2013-07-29 20:55:00,
2013-07-29 14:02:00,75.0,45.0,-100.00,West,270,7.0,13.0,34,-99.99,,,-99.99,,2013-07-29 21:02:00,
2013-07-29 14:13:00,75.0,44.0,-100.00,WSW,254,8.0,14.0,33,-99.99,,,-99.99,,2013-07-29 21:13:00,
2013-07-29 14:22:00,75.0,43.0,-100.00,WSW,244,9.0,15.0,32,-99.99,,,-99.99,,2013-07-29 21:22:00,
2013-07-29 14:33:00,75.0,44.0,-100.00,WSW,255,8.0,14.0,33,-99.99,,,-99.99,,2013-07-29 21:33:00,
2013-07-29 14:53:00,76.0,44.0,-100.00,West,259,9.0,16.0,32,-99.99,,,-99.99,,2013-07-29 21:53:00,
2013-07-29 15:43:00,75.0,45.0,-100.00,WSW,257,9.0,15.0,34,-99.99,,,-99.99,,2013-07-29 22:43:00,
2013-07-29 15:54:00,75.0,45.0,-100.00,WSW,257,9.0,15.0,34,-99.99,,,-99.99,,2013-07-29 22:54:00,
2013-07-29 16:03:00,75.0,45.0,-100.00,West,262,10.0,15.0,34,-99.99,,,-99.99,,2013-07-29 23:03:00,
2013-07-29 16:12:00,76.0,45.0,-100.00,WSW,243,10.0,15.0,33,-99.99,,,-99.99,,2013-07-29 23:12:00,
2013-07-29 16:53:00,75.0,46.0,-100.00,West,266,9.0,15.0,36,-99.99,,,-99.99,,2013-07-29 23:53:00,
2013-07-29 17:02:00,75.0,47.0,-100.00,WSW,242,9.0,15.0,37,-99.99,,,-99.99,,2013-07-30 00:02:00,
2013-07-29 17:23:00,74.0,47.0,-100.00,WSW,257,8.0,13.0,38,-99.99,,,-99.99,,2013-07-30 00:23:00,
2013-07-29 17:33:00,74.0,47.0,-100.00,WSW,248,9.0,17.0,39,-99.99,,,-99.99,,2013-07-30 00:33:00,
2013-07-29 17:53:00,74.0,48.0,-100.00,WSW,258,8.0,13.0,40,-99.99,,,-99.99,,2013-07-30 00:53:00,
2013-07-29 18:03:00,73.0,48.0,-100.00,West,260,8.0,14.0,41,-99.99,,,-99.99,,2013-07-30 01:03:00,
2013-07-29 18:13:00,73.0,49.0,-100.00,West,268,7.0,12.0,42,-99.99,,,-99.99,,2013-07-30 01:13:00,
2013-07-29 18:33:00,73.0,49.0,-100.00,West,268,7.0,11.0,43,-99.99,,,-99.99,,2013-07-30 01:33:00,
2013-07-29 18:53:00,72.0,49.0,-100.00,West,261,7.0,10.0,44,-99.99,,,-99.99,,2013-07-30 01:53:00,
2013-07-29 19:03:00,72.0,49.0,-100.00,West,263,6.0,9.0,45,-99.99,,,-99.99,,2013-07-30 02:03:00,
2013-07-29 19:13:00,72.0,49.0,-100.00,West,269,5.0,8.0,45,-99.99,,,-99.99,,2013-07-30 02:13:00,
2013-07-29 19:33:00,71.0,49.0,-100.00,West,262,5.0,8.0,46,-99.99,,,-99.99,,2013-07-30 02:33:00,
2013-07-29 20:03:00,69.0,50.0,-100.00,West,281,2.0,4.0,50,-99.99,,,-99.99,,2013-07-30 03:03:00,
2013-07-29 20:13:00,68.0,50.0,-100.00,WNW,292,3.0,4.0,52,-99.99,,,-99.99,,2013-07-30 03:13:00,
2013-07-29 20:33:00,68.0,48.0,-100.00,NW,309,3.0,4.0,49,-99.99,,,-99.99,,2013-07-30 03:33:00,
2013-07-29 21:22:00,70.0,35.0,-100.00,NW,311,4.0,6.0,28,-99.99,,,-99.99,,2013-07-30 04:22:00,
2013-07-29 21:32:00,69.0,35.0,-100.00,NW,317,3.0,4.0,28,-99.99,,,-99.99,,2013-07-30 04:32:00,
2013-07-29 21:43:00,69.0,35.0,-100.00,NW,308,3.0,5.0,29,-99.99,,,-99.99,,2013-07-30 04:43:00,
2013-07-29 22:11:00,68.0,35.0,-100.00,NW,305,3.0,4.0,29,-99.99,,,-99.99,,2013-07-30 05:11:00,
2013-07-29 22:22:00,68.0,34.0,-100.00,NW,311,2.0,3.0,28,-99.99,,,-99.99,,2013-07-30 05:22:00,
2013-07-29 22:32:00,69.0,34.0,-100.00,NW,324,3.0,3.0,27,-99.99,,,-99.99,,2013-07-30 05:32:00,
2013-07-29 22:45:00,69.0,34.0,-100.00,WNW,299,2.0,4.0,27,-99.99,,,-99.99,,2013-07-30 05:45:00,
2013-07-29 23:32:00,70.0,32.0,-100.00,NNW,336,4.0,5.0,24,-99.99,,,-99.99,,2013-07-30 06:32:00,
2013-07-29 23:43:00,70.0,32.0,-100.00,NNW,331,4.0,6.0,24,-99.99,,,-99.99,,2013-07-30 06:43:00,
2013-07-29 23:52:00,70.0,30.0,-100.00,NW,319,4.0,5.0,23,-99.99,,,-99.99,,2013-07-30 06:52:00,